Time;durP1;ratioP1;P1;durP2;ratioP2;P2;SDS_P1;SDS_P2;PMS_P1;PMS_P2;Temp;Humidity;BMP_temperature;BMP_pressure;BME280_temperature;BME280_humidity;BME280_pressure;Samples;Min_cycle;Max_cycle;Signal;HPM_P1;HPM_P2
2023/07/28 05:16:20;;;;;;;;;;;;;;;;;;4987517;28;19933;-40
2023/07/28 05:18:46;;;;;;;;;;;;;;;;;;4991330;28;19917;-41
2023/07/28 05:21:12;;;;;;;;;;;;;;;;;;4992143;28;19914;-40
2023/07/28 05:23:38;;;;;;;;;;;;;;;;;;4990029;28;20000;-41
2023/07/28 05:26:04;;;;;;;;;;;;;;;;;;4993223;28;19910;-41
2023/07/28 05:28:30;;;;;;;;;;;;;;;;;;4992590;28;20427;-42
2023/07/28 05:30:55;;;;;;;;;;;;;;;;;;4992397;28;19957;-41
2023/07/28 05:33:21;;;;;;;;;;;;;;;;;;4992503;28;19914;-41
2023/07/28 05:35:47;;;;;;;;;;;;;;;;;;4992533;28;19909;-42
2023/07/28 05:38:13;;;;;;;;;;;;;;;;;;4992289;28;19957;-41
2023/07/28 05:40:39;;;;;;;;;;;;;;;;;;4992665;28;20000;-41
2023/07/28 05:43:05;;;;;;;;;;;;;;;;;;4992047;28;19922;-41
2023/07/28 05:45:31;;;;;;;;;;;;;;;;;;4990468;28;19963;-41
2023/07/28 05:47:57;;;;;;;;;;;;;;;;;;4993019;28;19971;-40
2023/07/28 05:50:23;;;;;;;;;;;;;;;;;;4992321;28;19962;-41
2023/07/28 05:52:49;;;;;;;;;;;;;;;;;;4989302;28;19914;-40
2023/07/28 05:55:14;;;;;;;;;;;;;;;;;;4991983;28;19949;-41
2023/07/28 05:57:40;;;;;;;;;;;;;;;;;;4992661;28;20293;-40
2023/07/28 06:00:09;;;;;;;;;;;;;;;;;;4990937;28;19913;-40
2023/07/28 06:02:35;;;;;;;;;;;;;;;;;;4984243;28;19918;-40
2023/07/28 06:05:01;;;;;;;;;;;;;;;;;;4992182;28;19917;-41
2023/07/28 06:07:27;;;;;;;;;;;;;;;;;;4990962;28;19937;-40
2023/07/28 06:09:53;;;;;;;;;;;;;;;;;;4991330;28;19945;-42
2023/07/28 06:12:19;;;;;;;;;;;;;;;;;;4992168;28;20273;-40
2023/07/28 06:14:45;;;;;;;;;;;;;;;;;;4992021;28;19937;-41
2023/07/28 06:17:11;;;;;;;;;;;;;;;;;;4991966;28;19918;-41
2023/07/28 06:19:37;;;;;;;;;;;;;;;;;;4992057;28;19913;-41
2023/07/28 06:22:03;;;;;;;;;;;;;;;;;;4992144;28;19910;-41
2023/07/28 06:24:28;;;;;;;;;;;;;;;;;;4991974;28;19910;-41
2023/07/28 06:26:54;;;;;;;;;;;;;;;;;;4992079;28;20004;-41
2023/07/28 06:29:20;;;;;;;;;;;;;;;;;;4991556;28;19964;-41
2023/07/28 06:31:46;;;;;;;;;;;;;;;;;;4992078;28;20288;-41
2023/07/28 06:34:12;;;;;;;;;;;;;;;;;;4991805;28;19910;-41
2023/07/28 06:36:38;;;;;;;;;;;;;;;;;;4991827;28;20522;-41
2023/07/28 06:39:04;;;;;;;;;;;;;;;;;;4991793;28;19997;-41
2023/07/28 06:41:30;;;;;;;;;;;;;;;;;;4991489;28;20281;-41
2023/07/28 06:43:56;;;;;;;;;;;;;;;;;;4991099;28;19914;-41
2023/07/28 06:46:22;;;;;;;;;;;;;;;;;;4990898;28;19914;-41
2023/07/28 06:48:48;;;;;;;;;;;;;;;;;;4991477;28;20296;-41
2023/07/28 06:51:14;;;;;;;;;;;;;;;;;;4991499;28;19910;-41
2023/07/28 06:53:40;;;;;;;;;;;;;;;;;;4991513;28;20030;-41
2023/07/28 06:56:05;;;;;;;;;;;;;;;;;;4990631;28;20000;-41
2023/07/28 06:58:31;;;;;;;;;;;;;;;;;;4991486;28;19945;-41
2023/07/28 07:00:58;;;;;;;;;;;;;;;;;;4988946;28;19914;-41
2023/07/28 07:03:24;;;;;;;;;;;;;;;;;;4989958;28;19920;-41
2023/07/28 07:05:49;;;;;;;;;;;;;;;;;;4990929;28;19914;-41
2023/07/28 07:08:15;;;;;;;;;;;;;;;;;;4991110;28;20422;-41
2023/07/28 07:10:41;;;;;;;;;;;;;;;;;;4991517;28;19910;-41
2023/07/28 07:13:07;;;;;;;;;;;;;;;;;;4991637;28;20385;-41
2023/07/28 07:15:33;;;;;;;;;;;;;;;;;;4991123;28;19956;-41
2023/07/28 07:17:59;;;;;;;;;;;;;;;;;;4990508;28;19918;-41
2023/07/28 07:20:25;;;;;;;;;;;;;;;;;;4989977;28;19917;-41
2023/07/28 07:22:51;;;;;;;;;;;;;;;;;;4990877;28;19914;-41
2023/07/28 07:25:17;;;;;;;;;;;;;;;;;;4990853;28;19914;-42
2023/07/28 07:27:43;;;;;;;;;;;;;;;;;;4991888;28;19917;-41
2023/07/28 07:30:09;;;;;;;;;;;;;;;;;;4993515;28;19917;-41
2023/07/28 07:32:35;;;;;;;;;;;;;;;;;;4993853;28;20004;-41
2023/07/28 07:35:01;;;;;;;;;;;;;;;;;;4993589;28;19914;-41
2023/07/28 07:37:27;;;;;;;;;;;;;;;;;;4993461;28;19920;-41
2023/07/28 07:39:54;;;;;;;;;;;;;;;;;;4993811;28;19936;-42
2023/07/28 07:42:20;;;;;;;;;;;;;;;;;;4994001;28;19937;-41
2023/07/28 07:44:46;;;;;;;;;;;;;;;;;;4993756;28;19963;-41
2023/07/28 07:47:13;;;;;;;;;;;;;;;;;;4993601;28;19910;-41
2023/07/28 07:49:39;;;;;;;;;;;;;;;;;;4991941;28;20096;-41
2023/07/28 07:52:04;;;;;;;;;;;;;;;;;;4991564;28;20017;-41
2023/07/28 07:54:30;;;;;;;;;;;;;;;;;;4994789;28;19921;-41
2023/07/28 07:56:56;;;;;;;;;;;;;;;;;;4988799;28;19976;-42
2023/07/28 07:59:26;;;;;;;;;;;;;;;;;;4989446;28;19968;-41
2023/07/28 08:01:51;;;;;;;;;;;;;;;;;;4979475;28;19910;-41
2023/07/28 08:04:17;;;;;;;;;;;;;;;;;;4989034;28;19914;-41
2023/07/28 08:06:43;;;;;;;;;;;;;;;;;;4995404;28;19910;-41
2023/07/28 08:09:09;;;;;;;;;;;;;;;;;;4995635;28;19957;-42
2023/07/28 08:11:35;;;;;;;;;;;;;;;;;;4990348;28;19925;-41
2023/07/28 08:14:01;;;;;;;;;;;;;;;;;;4992716;28;19914;-41
2023/07/28 08:16:27;;;;;;;;;;;;;;;;;;4994785;28;19977;-41
2023/07/28 08:18:53;;;;;;;;;;;;;;;;;;4995241;28;19914;-41
2023/07/28 08:21:19;;;;;;;;;;;;;;;;;;4993753;28;19914;-41
2023/07/28 08:23:45;;;;;;;;;;;;;;;;;;4990814;28;19924;-42
2023/07/28 08:26:11;;;;;;;;;;;;;;;;;;4994117;28;19910;-42
2023/07/28 08:28:37;;;;;;;;;;;;;;;;;;4993943;28;20396;-42
2023/07/28 08:31:04;;;;;;;;;;;;;;;;;;4995006;28;19910;-41
2023/07/28 08:33:30;;;;;;;;;;;;;;;;;;4994986;28;19910;-42
2023/07/28 08:35:55;;;;;;;;;;;;;;;;;;4994811;28;19941;-41
2023/07/28 08:38:21;;;;;;;;;;;;;;;;;;4993567;28;19916;-41
2023/07/28 08:40:47;;;;;;;;;;;;;;;;;;4994418;28;19917;-41
2023/07/28 08:43:13;;;;;;;;;;;;;;;;;;4994845;28;19916;-42
2023/07/28 08:45:39;;;;;;;;;;;;;;;;;;4993610;28;19980;-41
2023/07/28 08:48:05;;;;;;;;;;;;;;;;;;4994847;28;19921;-41
2023/07/28 08:50:31;;;;;;;;;;;;;;;;;;4994996;28;19914;-41
2023/07/28 08:52:57;;;;;;;;;;;;;;;;;;4993758;28;20009;-41
2023/07/28 08:55:23;;;;;;;;;;;;;;;;;;4993694;28;20001;-41
2023/07/28 08:57:48;;;;;;;;;;;;;;;;;;4994432;28;19913;-41
2023/07/28 09:00:14;;;;;;;;;;;;;;;;;;4994496;28;19918;-41
2023/07/28 09:02:40;;;;;;;;;;;;;;;;;;4993363;28;19988;-41
2023/07/28 09:05:06;;;;;;;;;;;;;;;;;;4994456;28;19937;-42
2023/07/28 09:07:32;;;;;;;;;;;;;;;;;;4994158;28;20394;-41
2023/07/28 09:09:58;;;;;;;;;;;;;;;;;;4994215;28;20003;-42
2023/07/28 09:12:24;;;;;;;;;;;;;;;;;;4994118;28;19917;-42
2023/07/28 09:14:50;;;;;;;;;;;;;;;;;;4994027;28;19910;-41
2023/07/28 09:17:17;;;;;;;;;;;;;;;;;;4994010;28;19917;-42
2023/07/28 09:19:42;;;;;;;;;;;;;;;;;;4992983;28;20337;-42
2023/07/28 09:22:08;;;;;;;;;;;;;;;;;;4992038;28;19972;-42
2023/07/28 09:24:34;;;;;;;;;;;;;;;;;;4990030;28;19914;-41
2023/07/28 09:27:00;;;;;;;;;;;;;;;;;;4993565;28;19914;-42
2023/07/28 09:29:29;;;;;;;;;;;;;;;;;;4991675;28;19920;-42
2023/07/28 09:31:55;;;;;;;;;;;;;;;;;;4993487;28;20285;-41
2023/07/28 09:34:21;;;;;;;;;;;;;;;;;;4990454;28;19944;-42
2023/07/28 09:36:47;;;;;;;;;;;;;;;;;;4992513;28;20008;-42
2023/07/28 09:39:13;;;;;;;;;;;;;;;;;;4991993;28;19920;-41
2023/07/28 09:41:39;;;;;;;;;;;;;;;;;;4991163;28;20000;-41
2023/07/28 09:44:05;;;;;;;;;;;;;;;;;;4993477;28;19951;-41
2023/07/28 09:46:31;;;;;;;;;;;;;;;;;;4992352;28;19910;-41
2023/07/28 09:48:57;;;;;;;;;;;;;;;;;;4992625;28;19914;-41
2023/07/28 09:51:23;;;;;;;;;;;;;;;;;;4992523;28;19917;-41
2023/07/28 09:53:49;;;;;;;;;;;;;;;;;;4993321;28;19910;-41
2023/07/28 09:56:18;;;;;;;;;;;;;;;;;;4991497;28;19929;-41
2023/07/28 09:58:44;;;;;;;;;;;;;;;;;;4991698;28;19917;-41
2023/07/28 10:01:10;;;;;;;;;;;;;;;;;;4992996;28;19937;-41
2023/07/28 10:03:36;;;;;;;;;;;;;;;;;;4993419;28;19910;-42
2023/07/28 10:06:02;;;;;;;;;;;;;;;;;;4993277;28;19933;-41
2023/07/28 10:08:28;;;;;;;;;;;;;;;;;;4993745;28;19991;-41
2023/07/28 10:10:54;;;;;;;;;;;;;;;;;;4996452;28;19960;-41
2023/07/28 10:13:21;;;;;;;;;;;;;;;;;;4990248;28;20411;-41
2023/07/28 10:15:47;;;;;;;;;;;;;;;;;;4991780;28;19916;-42
2023/07/28 10:18:13;;;;;;;;;;;;;;;;;;4992187;28;19925;-41
2023/07/28 10:20:39;;;;;;;;;;;;;;;;;;4992407;28;19918;-41
2023/07/28 10:23:05;;;;;;;;;;;;;;;;;;4992381;28;19914;-42
2023/07/28 10:25:31;;;;;;;;;;;;;;;;;;4992087;28;20454;-41
2023/07/28 10:27:57;;;;;;;;;;;;;;;;;;4992091;28;19910;-42
2023/07/28 10:30:23;;;;;;;;;;;;;;;;;;4991245;28;20762;-41
2023/07/28 10:32:52;;;;;;;;;;;;;;;;;;4991187;28;19952;-42
2023/07/28 10:35:18;;;;;;;;;;;;;;;;;;4991776;28;20344;-42
2023/07/28 10:37:44;;;;;;;;;;;;;;;;;;5006792;28;19914;-42
2023/07/28 10:40:10;;;;;;;;;;;;;;;;;;5005639;28;19913;-43
2023/07/28 10:42:38;;;;;;;;;;;;;;;;;;4990312;28;20210;-41
2023/07/28 10:45:04;;;;;;;;;;;;;;;;;;4991663;28;20436;-42
2023/07/28 10:47:30;;;;;;;;;;;;;;;;;;4991380;28;20005;-42
2023/07/28 10:49:56;;;;;;;;;;;;;;;;;;4991545;28;19909;-42
2023/07/28 10:52:22;;;;;;;;;;;;;;;;;;4990562;28;20294;-42
2023/07/28 10:54:48;;;;;;;;;;;;;;;;;;4991094;28;19917;-42
2023/07/28 10:57:13;;;;;;;;;;;;;;;;;;4991609;28;20387;-42
2023/07/28 10:59:39;;;;;;;;;;;;;;;;;;4991532;28;19944;-42
2023/07/28 11:02:05;;;;;;;;;;;;;;;;;;4990626;28;20584;-42
2023/07/28 11:04:31;;;;;;;;;;;;;;;;;;4986144;28;19972;-43
2023/07/28 11:06:57;;;;;;;;;;;;;;;;;;4986566;28;20280;-42
2023/07/28 11:09:23;;;;;;;;;;;;;;;;;;4982649;28;19917;-42
2023/07/28 11:11:50;;;;;;;;;;;;;;;;;;4984510;28;19986;-43
2023/07/28 11:14:16;;;;;;;;;;;;;;;;;;4986491;28;19964;-42
2023/07/28 11:16:42;;;;;;;;;;;;;;;;;;4981337;28;19918;-43
2023/07/28 11:19:09;;;;;;;;;;;;;;;;;;4998169;28;19937;-42
2023/07/28 11:21:35;;;;;;;;;;;;;;;;;;4985536;28;19932;-42
2023/07/28 11:24:01;;;;;;;;;;;;;;;;;;4984857;28;19941;-43
2023/07/28 11:26:27;;;;;;;;;;;;;;;;;;4985714;28;19910;-43
2023/07/28 11:28:54;;;;;;;;;;;;;;;;;;4986683;28;20072;-43
2023/07/28 11:31:19;;;;;;;;;;;;;;;;;;4970402;28;19914;-44
2023/07/28 11:33:45;;;;;;;;;;;;;;;;;;4984746;28;19924;-43
2023/07/28 11:36:11;;;;;;;;;;;;;;;;;;4983963;28;19918;-42
2023/07/28 11:38:37;;;;;;;;;;;;;;;;;;5003024;28;19914;-43
2023/07/28 11:41:03;;;;;;;;;;;;;;;;;;4988343;28;19920;-44
2023/07/28 11:43:29;;;;;;;;;;;;;;;;;;4986540;28;19921;-42
2023/07/28 11:45:55;;;;;;;;;;;;;;;;;;4988842;28;20554;-42
2023/07/28 11:48:21;;;;;;;;;;;;;;;;;;4991167;28;19999;-43
2023/07/28 11:50:47;;;;;;;;;;;;;;;;;;4990864;28;19916;-43
2023/07/28 11:53:13;;;;;;;;;;;;;;;;;;4990643;28;19926;-43
2023/07/28 11:55:39;;;;;;;;;;;;;;;;;;4991357;28;19910;-43
2023/07/28 11:58:05;;;;;;;;;;;;;;;;;;4990993;28;19917;-43
2023/07/28 12:00:34;;;;;;;;;;;;;;;;;;4990655;28;20365;-42
2023/07/28 12:03:00;;;;;;;;;;;;;;;;;;4991087;28;19910;-42
2023/07/28 12:05:26;;;;;;;;;;;;;;;;;;4990771;28;19917;-42
2023/07/28 12:07:52;;;;;;;;;;;;;;;;;;4990628;28;19961;-42
2023/07/28 12:10:18;;;;;;;;;;;;;;;;;;4990577;28;20490;-43
2023/07/28 12:12:44;;;;;;;;;;;;;;;;;;4990779;28;19909;-42
2023/07/28 12:15:10;;;;;;;;;;;;;;;;;;4994130;28;19909;-42
2023/07/28 12:17:36;;;;;;;;;;;;;;;;;;4994362;28;19918;-42
2023/07/28 12:20:07;;;;;;;;;;;;;;;;;;4994236;28;19910;-42
2023/07/28 12:22:34;;;;;;;;;;;;;;;;;;4994385;28;20375;-42
2023/07/28 12:25:00;;;;;;;;;;;;;;;;;;4994096;28;19972;-43
2023/07/28 12:27:26;;;;;;;;;;;;;;;;;;4994266;28;20000;-42
2023/07/28 12:29:52;;;;;;;;;;;;;;;;;;4993643;28;20372;-43
2023/07/28 12:32:18;;;;;;;;;;;;;;;;;;4993523;28;19956;-42
2023/07/28 12:34:44;;;;;;;;;;;;;;;;;;4993338;28;20423;-42
2023/07/28 12:37:10;;;;;;;;;;;;;;;;;;4993892;28;19946;-42
2023/07/28 12:39:38;;;;;;;;;;;;;;;;;;4993809;28;19910;-42
2023/07/28 12:42:04;;;;;;;;;;;;;;;;;;4993620;28;20283;-42
2023/07/28 12:44:30;;;;;;;;;;;;;;;;;;4993670;28;20009;-42
2023/07/28 12:46:56;;;;;;;;;;;;;;;;;;4992464;28;19910;-42
2023/07/28 12:49:22;;;;;;;;;;;;;;;;;;4992474;28;19909;-42
2023/07/28 12:51:48;;;;;;;;;;;;;;;;;;4992702;28;19917;-43
2023/07/28 12:54:14;;;;;;;;;;;;;;;;;;4992512;28;19956;-42
2023/07/28 12:56:39;;;;;;;;;;;;;;;;;;4992754;28;19921;-42
2023/07/28 12:59:05;;;;;;;;;;;;;;;;;;4992580;28;19920;-43
2023/07/28 13:01:31;;;;;;;;;;;;;;;;;;4992810;28;19940;-41
2023/07/28 13:03:57;;;;;;;;;;;;;;;;;;4992340;28;20325;-42
2023/07/28 13:06:23;;;;;;;;;;;;;;;;;;4992240;28;19911;-42
2023/07/28 13:08:49;;;;;;;;;;;;;;;;;;4992377;28;19913;-42
2023/07/28 13:11:15;;;;;;;;;;;;;;;;;;4992141;28;19913;-42
2023/07/28 13:13:41;;;;;;;;;;;;;;;;;;4992779;28;19957;-42
2023/07/28 13:16:06;;;;;;;;;;;;;;;;;;4994559;28;19951;-41
2023/07/28 13:18:32;;;;;;;;;;;;;;;;;;4995378;28;19979;-42
2023/07/28 13:20:58;;;;;;;;;;;;;;;;;;5009481;28;20095;-43
2023/07/28 13:23:24;;;;;;;;;;;;;;;;;;5009844;28;19952;-41
2023/07/28 13:25:50;;;;;;;;;;;;;;;;;;5008400;28;20434;-42
2023/07/28 13:28:16;;;;;;;;;;;;;;;;;;5009107;28;20160;-42
2023/07/28 13:30:42;;;;;;;;;;;;;;;;;;5009047;28;19948;-41
2023/07/28 13:33:08;;;;;;;;;;;;;;;;;;5009224;28;19905;-43
2023/07/28 13:35:34;;;;;;;;;;;;;;;;;;5008897;28;19909;-42
2023/07/28 13:38:00;;;;;;;;;;;;;;;;;;5008908;28;20397;-42
2023/07/28 13:40:25;;;;;;;;;;;;;;;;;;5009620;28;19914;-42
2023/07/28 13:42:51;;;;;;;;;;;;;;;;;;5009604;28;20214;-43
2023/07/28 13:45:17;;;;;;;;;;;;;;;;;;5008527;28;19982;-42
2023/07/28 13:47:43;;;;;;;;;;;;;;;;;;5007566;28;19910;-42
2023/07/28 13:50:09;;;;;;;;;;;;;;;;;;5008601;28;19909;-41
2023/07/28 13:52:35;;;;;;;;;;;;;;;;;;5008974;28;19944;-42
2023/07/28 13:55:02;;;;;;;;;;;;;;;;;;5008484;28;20359;-42
2023/07/28 13:57:28;;;;;;;;;;;;;;;;;;5008344;28;19980;-41
2023/07/28 13:59:54;;;;;;;;;;;;;;;;;;5009302;28;19914;-41
2023/07/28 14:02:20;;;;;;;;;;;;;;;;;;5008379;28;20364;-41
2023/07/28 14:04:46;;;;;;;;;;;;;;;;;;5008608;28;19916;-41
2023/07/28 14:07:11;;;;;;;;;;;;;;;;;;5008181;28;20271;-42
2023/07/28 14:09:37;;;;;;;;;;;;;;;;;;5008416;28;19910;-42
2023/07/28 14:12:03;;;;;;;;;;;;;;;;;;5008155;28;19989;-42
2023/07/28 14:14:29;;;;;;;;;;;;;;;;;;5008261;28;19952;-41
2023/07/28 14:16:55;;;;;;;;;;;;;;;;;;5008361;28;20328;-42
2023/07/28 14:19:21;;;;;;;;;;;;;;;;;;5008517;28;19910;-42
2023/07/28 14:21:47;;;;;;;;;;;;;;;;;;5008112;28;19956;-42
2023/07/28 14:24:13;;;;;;;;;;;;;;;;;;5008237;28;19941;-43
2023/07/28 14:26:38;;;;;;;;;;;;;;;;;;5007644;28;20372;-42
2023/07/28 14:29:04;;;;;;;;;;;;;;;;;;5007824;28;20045;-42
2023/07/28 14:31:30;;;;;;;;;;;;;;;;;;5007904;28;19956;-42
2023/07/28 14:33:56;;;;;;;;;;;;;;;;;;5008523;28;19933;-41
2023/07/28 14:36:22;;;;;;;;;;;;;;;;;;5007206;28;19913;-43
2023/07/28 14:38:48;;;;;;;;;;;;;;;;;;5008015;28;19913;-42
2023/07/28 14:41:14;;;;;;;;;;;;;;;;;;5007676;28;20465;-42
2023/07/28 14:43:40;;;;;;;;;;;;;;;;;;5007760;28;20160;-42
2023/07/28 14:46:06;;;;;;;;;;;;;;;;;;5007259;28;19910;-42
2023/07/28 14:48:31;;;;;;;;;;;;;;;;;;5007692;28;20000;-42
2023/07/28 14:50:57;;;;;;;;;;;;;;;;;;5008395;28;19910;-42
2023/07/28 14:53:23;;;;;;;;;;;;;;;;;;5008218;28;19910;-42
2023/07/28 14:55:49;;;;;;;;;;;;;;;;;;5007373;28;19909;-42
2023/07/28 14:58:15;;;;;;;;;;;;;;;;;;5007278;28;19917;-41
2023/07/28 15:00:41;;;;;;;;;;;;;;;;;;5007426;28;20404;-42
2023/07/28 15:03:07;;;;;;;;;;;;;;;;;;5007570;28;19913;-41
2023/07/28 15:05:32;;;;;;;;;;;;;;;;;;5007413;28;20377;-42
2023/07/28 15:08:00;;;;;;;;;;;;;;;;;;5007539;28;19910;-41
2023/07/28 15:10:25;;;;;;;;;;;;;;;;;;5007723;28;19913;-43
2023/07/28 15:12:51;;;;;;;;;;;;;;;;;;4988890;28;19957;-42
2023/07/28 15:15:17;;;;;;;;;;;;;;;;;;4988644;28;19914;-42
2023/07/28 15:17:43;;;;;;;;;;;;;;;;;;5005349;28;19917;-42
2023/07/28 15:20:09;;;;;;;;;;;;;;;;;;5007222;28;19909;-43
2023/07/28 15:22:35;;;;;;;;;;;;;;;;;;5007783;28;19913;-42
2023/07/28 15:25:01;;;;;;;;;;;;;;;;;;5007115;28;19909;-42
2023/07/28 15:27:27;;;;;;;;;;;;;;;;;;5006993;28;19910;-42
2023/07/28 15:29:53;;;;;;;;;;;;;;;;;;5007048;28;20405;-42
2023/07/28 15:32:19;;;;;;;;;;;;;;;;;;5005771;28;19909;-42
2023/07/28 15:34:45;;;;;;;;;;;;;;;;;;5007056;28;19913;-43
2023/07/28 15:37:10;;;;;;;;;;;;;;;;;;5006748;28;19914;-42
2023/07/28 15:39:36;;;;;;;;;;;;;;;;;;5007567;28;20369;-42
2023/07/28 15:42:02;;;;;;;;;;;;;;;;;;5007047;28;19909;-42
2023/07/28 15:44:28;;;;;;;;;;;;;;;;;;5006931;28;20492;-41
2023/07/28 15:46:54;;;;;;;;;;;;;;;;;;5006726;28;19910;-42
2023/07/28 15:49:20;;;;;;;;;;;;;;;;;;5009434;28;19910;-43
2023/07/28 15:51:46;;;;;;;;;;;;;;;;;;5010976;28;19909;-44
2023/07/28 15:54:12;;;;;;;;;;;;;;;;;;5010658;28;19910;-44
2023/07/28 15:56:38;;;;;;;;;;;;;;;;;;5011167;28;20084;-42
2023/07/28 15:59:04;;;;;;;;;;;;;;;;;;5011136;28;20179;-43
2023/07/28 16:01:30;;;;;;;;;;;;;;;;;;5010664;28;20373;-43
2023/07/28 16:03:56;;;;;;;;;;;;;;;;;;5010894;28;19913;-44
2023/07/28 16:06:22;;;;;;;;;;;;;;;;;;5010598;28;19917;-43
2023/07/28 16:08:48;;;;;;;;;;;;;;;;;;5010451;28;20322;-43
2023/07/28 16:11:14;;;;;;;;;;;;;;;;;;5010411;28;20396;-42
2023/07/28 16:13:40;;;;;;;;;;;;;;;;;;5010585;28;19910;-42
2023/07/28 16:16:06;;;;;;;;;;;;;;;;;;5010953;28;20362;-43
2023/07/28 16:18:31;;;;;;;;;;;;;;;;;;5010604;28;19924;-42
2023/07/28 16:20:57;;;;;;;;;;;;;;;;;;5010513;28;19956;-42
2023/07/28 16:23:23;;;;;;;;;;;;;;;;;;5010213;28;19910;-42
2023/07/28 16:25:49;;;;;;;;;;;;;;;;;;5010390;28;19909;-42
2023/07/28 16:28:15;;;;;;;;;;;;;;;;;;5009787;28;20031;-42
2023/07/28 16:30:41;;;;;;;;;;;;;;;;;;5010333;28;19916;-43
2023/07/28 16:33:07;;;;;;;;;;;;;;;;;;5000494;28;19914;-42
2023/07/28 16:35:33;;;;;;;;;;;;;;;;;;4989153;28;19914;-43
2023/07/28 16:37:58;;;;;;;;;;;;;;;;;;4990022;28;20425;-43
2023/07/28 16:40:24;;;;;;;;;;;;;;;;;;4992186;28;19917;-43
2023/07/28 16:42:50;;;;;;;;;;;;;;;;;;4990640;28;19920;-42
2023/07/28 16:45:16;;;;;;;;;;;;;;;;;;4990986;28;19913;-43
2023/07/28 16:47:42;;;;;;;;;;;;;;;;;;4991428;28;20012;-42
2023/07/28 16:50:08;;;;;;;;;;;;;;;;;;4990011;28;19910;-43
2023/07/28 16:52:34;;;;;;;;;;;;;;;;;;4989139;28;19914;-42
2023/07/28 16:55:00;;;;;;;;;;;;;;;;;;4989158;28;19913;-43
2023/07/28 16:57:26;;;;;;;;;;;;;;;;;;4988340;28;20312;-44
2023/07/28 16:59:52;;;;;;;;;;;;;;;;;;4986615;28;19914;-43
2023/07/28 17:02:18;;;;;;;;;;;;;;;;;;4986734;28;19918;-43
2023/07/28 17:04:43;;;;;;;;;;;;;;;;;;4987579;28;19913;-43
2023/07/28 17:07:09;;;;;;;;;;;;;;;;;;4987387;28;20403;-43
2023/07/28 17:09:35;;;;;;;;;;;;;;;;;;4987067;28;19980;-42
2023/07/28 17:12:01;;;;;;;;;;;;;;;;;;5001865;28;19918;-43
2023/07/28 17:14:27;;;;;;;;;;;;;;;;;;4987371;28;20403;-43
2023/07/28 17:16:53;;;;;;;;;;;;;;;;;;4983218;28;19975;-42
2023/07/28 17:19:19;;;;;;;;;;;;;;;;;;4986909;28;19921;-44
2023/07/28 17:21:45;;;;;;;;;;;;;;;;;;4984928;28;19918;-43
2023/07/28 17:24:10;;;;;;;;;;;;;;;;;;4987723;28;19918;-44
2023/07/28 17:26:36;;;;;;;;;;;;;;;;;;4986185;28;20008;-44
2023/07/28 17:29:02;;;;;;;;;;;;;;;;;;4988270;28;20288;-43
2023/07/28 17:31:28;;;;;;;;;;;;;;;;;;4987933;28;19928;-43
2023/07/28 17:33:54;;;;;;;;;;;;;;;;;;4976702;28;19965;-43
2023/07/28 17:36:20;;;;;;;;;;;;;;;;;;4986005;28;19910;-43
2023/07/28 17:38:46;;;;;;;;;;;;;;;;;;4985171;28;19913;-43
2023/07/28 17:41:12;;;;;;;;;;;;;;;;;;4985020;28;19914;-43
2023/07/28 17:43:38;;;;;;;;;;;;;;;;;;4986844;28;19910;-42
2023/07/28 17:46:04;;;;;;;;;;;;;;;;;;4986064;28;19914;-43
2023/07/28 17:48:30;;;;;;;;;;;;;;;;;;4983438;28;20005;-44
2023/07/28 17:50:56;;;;;;;;;;;;;;;;;;4986858;28;20455;-44
2023/07/28 17:53:23;;;;;;;;;;;;;;;;;;4987742;28;19960;-43
2023/07/28 17:55:48;;;;;;;;;;;;;;;;;;4984979;28;20297;-43
2023/07/28 17:58:14;;;;;;;;;;;;;;;;;;4981966;28;19926;-45
2023/07/28 18:00:40;;;;;;;;;;;;;;;;;;4981381;28;20066;-42
2023/07/28 18:03:06;;;;;;;;;;;;;;;;;;4981344;28;19913;-43
2023/07/28 18:05:32;;;;;;;;;;;;;;;;;;4981389;28;19932;-45
2023/07/28 18:07:58;;;;;;;;;;;;;;;;;;4984215;28;19937;-43
2023/07/28 18:10:24;;;;;;;;;;;;;;;;;;4985190;28;20172;-43
2023/07/28 18:12:50;;;;;;;;;;;;;;;;;;4980029;28;19913;-42
2023/07/28 18:15:16;;;;;;;;;;;;;;;;;;4982233;28;21048;-43
2023/07/28 18:17:42;;;;;;;;;;;;;;;;;;4981389;28;20005;-43
2023/07/28 18:20:08;;;;;;;;;;;;;;;;;;4982663;28;19918;-42
2023/07/28 18:22:34;;;;;;;;;;;;;;;;;;4983575;28;19914;-42
2023/07/28 18:27:36;;;;;;;;;;;;;;;;;;5362947;22;19945;-50
2023/07/28 18:30:03;;;;;;;;;;;;;;;;;;4948312;29;20355;-46
2023/07/28 18:32:29;;;;;;;;;;;;;;;;;;4948739;29;20896;-50
2023/07/28 18:34:55;;;;;;;;;;;;;;;;;;4948305;29;19914;-50
2023/07/28 18:37:21;;;;;;;;;;;;;;;;;;4946059;29;19922;-50
2023/07/28 18:39:47;;;;;;;;;;;;;;;;;;4945767;29;20005;-49
2023/07/28 18:42:13;;;;;;;;;;;;;;;;;;4945752;29;19918;-48
2023/07/28 18:44:39;;;;;;;;;;;;;;;;;;4948159;29;19915;-46
2023/07/28 18:47:05;;;;;;;;;;;;;;;;;;4948506;29;19922;-48
2023/07/28 18:49:31;;;;;;;;;;;;;;;;;;4949674;29;20413;-47
2023/07/28 18:51:57;;;;;;;;;;;;;;;;;;4949406;29;19991;-52
2023/07/28 18:54:23;;;;;;;;;;;;;;;;;;4948281;29;19914;-49
2023/07/28 18:56:49;;;;;;;;;;;;;;;;;;4946047;29;19927;-47
2023/07/28 18:59:14;;;;;;;;;;;;;;;;;;4949100;29;20274;-49
2023/07/28 19:01:40;;;;;;;;;;;;;;;;;;4946738;29;19923;-49
2023/07/28 19:04:06;;;;;;;;;;;;;;;;;;4944556;29;19914;-48
2023/07/28 19:06:32;;;;;;;;;;;;;;;;;;4947697;29;19915;-53
2023/07/28 19:08:58;;;;;;;;;;;;;;;;;;4945564;28;20409;-52
2023/07/28 19:11:24;;;;;;;;;;;;;;;;;;4946998;29;19969;-49
2023/07/28 19:13:50;;;;;;;;;;;;;;;;;;4947852;29;20026;-53
2023/07/28 19:16:16;;;;;;;;;;;;;;;;;;4947955;29;19942;-47
2023/07/28 19:18:42;;;;;;;;;;;;;;;;;;4947603;29;19922;-52
2023/07/28 19:21:08;;;;;;;;;;;;;;;;;;4947930;29;19937;-49
2023/07/28 19:23:34;;;;;;;;;;;;;;;;;;4946954;28;19921;-51
2023/07/28 19:26:00;;;;;;;;;;;;;;;;;;4928484;29;20440;-49
2023/07/28 19:28:26;;;;;;;;;;;;;;;;;;4946852;29;19957;-52
2023/07/28 19:30:52;;;;;;;;;;;;;;;;;;4947942;29;19922;-49
2023/07/28 19:33:17;;;;;;;;;;;;;;;;;;4947624;29;19969;-50
2023/07/28 19:35:46;;;;;;;;;;;;;;;;;;4949438;29;19910;-51
2023/07/28 19:38:11;;;;;;;;;;;;;;;;;;4948826;29;19949;-49
2023/07/28 19:40:37;;;;;;;;;;;;;;;;;;4947877;29;19964;-52
2023/07/28 19:43:03;;;;;;;;;;;;;;;;;;4946225;29;19921;-49
2023/07/28 19:45:29;;;;;;;;;;;;;;;;;;4946381;29;19926;-49
2023/07/28 19:47:55;;;;;;;;;;;;;;;;;;4947492;29;19914;-48
2023/07/28 19:50:21;;;;;;;;;;;;;;;;;;4947293;29;19923;-47
2023/07/28 19:52:47;;;;;;;;;;;;;;;;;;4948196;29;19915;-50
2023/07/28 19:55:13;;;;;;;;;;;;;;;;;;4947389;29;20013;-50
2023/07/28 19:57:39;;;;;;;;;;;;;;;;;;4947775;29;19918;-47
2023/07/28 20:00:05;;;;;;;;;;;;;;;;;;4946014;29;19914;-48
2023/07/28 20:02:30;;;;;;;;;;;;;;;;;;4947674;29;19918;-50
2023/07/28 20:04:56;;;;;;;;;;;;;;;;;;4947288;29;19961;-46
2023/07/28 20:07:23;;;;;;;;;;;;;;;;;;4946722;29;19922;-47
2023/07/28 20:09:49;;;;;;;;;;;;;;;;;;4948249;29;19918;-48
2023/07/28 20:12:14;;;;;;;;;;;;;;;;;;4948653;29;19915;-48
2023/07/28 20:14:40;;;;;;;;;;;;;;;;;;4948326;29;19914;-52
2023/07/28 20:17:06;;;;;;;;;;;;;;;;;;4950138;29;19914;-48
2023/07/28 20:19:32;;;;;;;;;;;;;;;;;;4948209;29;19915;-48
2023/07/28 20:21:58;;;;;;;;;;;;;;;;;;4947928;29;20263;-48
2023/07/28 20:24:24;;;;;;;;;;;;;;;;;;4947349;29;19915;-48
2023/07/28 20:26:50;;;;;;;;;;;;;;;;;;4948220;29;19922;-46
2023/07/28 20:29:16;;;;;;;;;;;;;;;;;;4946606;29;19937;-49
2023/07/28 20:31:42;;;;;;;;;;;;;;;;;;4948261;29;19946;-46
2023/07/28 20:34:08;;;;;;;;;;;;;;;;;;4945955;28;19945;-47
2023/07/28 20:36:33;;;;;;;;;;;;;;;;;;4951552;29;19985;-47
2023/07/28 20:38:59;;;;;;;;;;;;;;;;;;4952965;29;20319;-49
2023/07/28 20:41:25;;;;;;;;;;;;;;;;;;4950723;29;19950;-47
2023/07/28 20:43:52;;;;;;;;;;;;;;;;;;4952328;29;19960;-47
2023/07/28 20:46:18;;;;;;;;;;;;;;;;;;4951529;29;19918;-48
2023/07/28 20:48:44;;;;;;;;;;;;;;;;;;4949298;29;19961;-47
2023/07/28 20:51:10;;;;;;;;;;;;;;;;;;4951298;29;20333;-48
2023/07/28 20:53:36;;;;;;;;;;;;;;;;;;4950227;29;19930;-48
2023/07/28 20:56:02;;;;;;;;;;;;;;;;;;4950847;29;20309;-46
2023/07/28 20:58:28;;;;;;;;;;;;;;;;;;4950899;29;19921;-47
2023/07/28 21:00:54;;;;;;;;;;;;;;;;;;4933628;29;19910;-49
2023/07/28 21:03:20;;;;;;;;;;;;;;;;;;4950836;29;20128;-46
2023/07/28 21:05:46;;;;;;;;;;;;;;;;;;4950813;29;19910;-48
2023/07/28 21:08:12;;;;;;;;;;;;;;;;;;4933621;29;19914;-47
2023/07/28 21:10:37;;;;;;;;;;;;;;;;;;4951135;29;19911;-47
2023/07/28 21:13:03;;;;;;;;;;;;;;;;;;4950631;29;19910;-47
2023/07/28 21:15:29;;;;;;;;;;;;;;;;;;4950059;29;19918;-46
2023/07/28 21:17:55;;;;;;;;;;;;;;;;;;4933462;29;19914;-47
2023/07/28 21:20:21;;;;;;;;;;;;;;;;;;4950350;29;19914;-49
2023/07/28 21:22:47;;;;;;;;;;;;;;;;;;4949935;29;20001;-48
2023/07/28 21:25:13;;;;;;;;;;;;;;;;;;4950489;29;20179;-47
2023/07/28 21:27:39;;;;;;;;;;;;;;;;;;4950213;29;20282;-46
2023/07/28 21:30:05;;;;;;;;;;;;;;;;;;4950717;29;19919;-49
2023/07/28 21:32:30;;;;;;;;;;;;;;;;;;4949712;29;20484;-51
2023/07/28 21:34:57;;;;;;;;;;;;;;;;;;4950102;29;19961;-51
2023/07/28 21:37:23;;;;;;;;;;;;;;;;;;4932675;29;20018;-45
2023/07/28 21:39:49;;;;;;;;;;;;;;;;;;4949576;29;20001;-46
2023/07/28 21:42:15;;;;;;;;;;;;;;;;;;4932449;29;20294;-52
2023/07/28 21:44:41;;;;;;;;;;;;;;;;;;4949970;29;19921;-50
2023/07/28 21:47:07;;;;;;;;;;;;;;;;;;4949564;28;19953;-41
2023/07/28 21:49:33;;;;;;;;;;;;;;;;;;4949676;29;19941;-52
2023/07/28 21:51:59;;;;;;;;;;;;;;;;;;4950097;29;19966;-41
2023/07/28 21:54:25;;;;;;;;;;;;;;;;;;4950036;29;19911;-41